Washington, MS

4:16 AM CDT on April 30, 2017 (GMT -0500)
Hardy-Anders-Adams County | | Change Station
Active Advisory: Flood Warning

Elev 269 ft 31.61 °N, 91.30 °W | Updated 11 minutes ago

Light Thunderstorms and Rain
Light Thunderstorm Rain
75 °F
Feels Like 75 °F
N
16
Wind Variable Wind from SSE
Gusts 21 mph

Today
High -- | Low -- °F
--% Chance of Precip.
Yesterday
High -- | Low -- °F
Precip. -- in
Pressure 29.70 in
Visibility 10.0 miles
Clouds Scattered Clouds 2900 ft
Mostly Cloudy 7000 ft
Overcast 9000 ft
Dew Point 72 °F
Humidity 89%
Rainfall 0.00 in
Snow Depth Not available.
6:20 AM 7:44 PM
Waxing Crescent, 21% visible
SPECI KHEZ 300905Z AUTO 15014G18KT 10SM -TSRA SCT029 BKN070 OVC090 24/22 A2970 RMK AO2 LTG DSNT ALQDS PRESFR P0001
Pressure 29.70 in
Visibility 10.0 miles
Clouds Scattered Clouds 2900 ft
Mostly Cloudy 7000 ft
Overcast 9000 ft
Dew Point 72 °F
Humidity 89%
Rainfall 0.00 in
Snow Depth Not available.
6:20 AM 7:44 PM
Waxing Crescent, 21% visible
SPECI KHEZ 300905Z AUTO 15014G18KT 10SM -TSRA SCT029 BKN070 OVC090 24/22 A2970 RMK AO2 LTG DSNT ALQDS PRESFR P0001

Get Your Daily Forecast Email!

Thanks for signing up!

Be on the lookout for a verification email in your inbox.

You'll start receiving severe weather alerts in your inbox..

×

10-Day Weather Forecast

Almanac

Astronomy

Apr. 30, 2017 Rise Set
Actual Time
Civil Twilight
Nautical Twilight
Astronomical Twilight
Moon
Length of Visible Light
Length of Day
Tomorrow will be .
, % of the Moon is Illuminated

Today's Extremes

State Highs State Lows

Community

WunderPhotos

WunderBlog® & News

Nearby

Air Quality

  Air Quality AQ Index Pollutant
Not available.

Snow Depth

Station Depth Elevation

Earthquake Activity

City Distance Mag. Time & Date
Minimum magnitude displayed is 2.5.

Coastal Water Temperatures

Place Temperature

Stations

Nearby Weather Stations

Station Location Temp. Windchill Dew Point Humidity Wind Precip. Elev Updated Type
                   

Watches & Warnings

Flood Warning
Issued: 9:33 PM CDT Apr. 29, 2017 – National Weather Service

... Flood Warning extended until Tuesday may 23...

The Flood Warning continues for
the Mississippi River at Natchez
* from Friday evening to Tuesday may 23.
* At 9:00 PM Saturday the stage was 40.8 feet.
* Moderate flooding is forecast.
* Flood stage is 48.0 feet.
* Forecast... the river will rise above flood stage Friday may 05 and
will continue to rise to near 52.0 feet Wednesday may 17.
* Impact... at 51.0 feet... water is covering the roads in old downtown
area of Fort Adams.
* Impact... at 48.0 feet... Carthage Point Road becomes impassable.


              Flood observed forecast 6 am crest
location stg stg day time sun Mon Tue crest time date

Lower Mississippi River
Natchez 48 40.8 Sat 09 PM 41.1 41.9 42.9 52.0 01 PM 05/17




Lat... Lon 3101 9170 3130 9167 3193 9129 3187 9114
      3130 9147 3100 9154